createdAt,value
2023-01-29T00:00:10.026Z,11.98
2023-01-29T00:02:36.810Z,12.73
2023-01-29T00:05:20.754Z,12.10
2023-01-29T00:07:50.773Z,12.02
2023-01-29T00:10:17.552Z,11.48
2023-01-29T00:12:44.170Z,11.15
2023-01-29T00:15:10.905Z,11.32
2023-01-29T00:17:37.587Z,12.13
2023-01-29T00:20:04.055Z,13.27
2023-01-29T00:22:30.571Z,13.25
2023-01-29T00:24:56.980Z,13.02
2023-01-29T00:27:23.363Z,12.43
2023-01-29T00:30:09.285Z,12.40
2023-01-29T00:32:36.232Z,12.00
2023-01-29T00:35:02.879Z,13.40
2023-01-29T00:37:29.309Z,12.02
2023-01-29T00:39:56.531Z,13.23
2023-01-29T00:42:41.539Z,13.23
2023-01-29T00:45:08.105Z,11.93
2023-01-29T00:47:34.600Z,12.93
2023-01-29T00:50:11.146Z,13.50
2023-01-29T00:52:37.861Z,13.00
2023-01-29T00:55:05.226Z,11.88
2023-01-29T00:57:32.482Z,11.15
2023-01-29T00:59:58.873Z,11.68
2023-01-29T01:02:44.753Z,12.13
2023-01-29T01:05:14.107Z,12.82
2023-01-29T01:07:41.069Z,11.05
2023-01-29T01:10:22.658Z,11.60
2023-01-29T01:12:50.742Z,11.68
2023-01-29T01:15:17.919Z,12.15
2023-01-29T01:17:44.378Z,11.95
2023-01-29T01:20:11.206Z,12.35
2023-01-29T01:22:37.521Z,11.70
2023-01-29T01:25:04.091Z,12.02
2023-01-29T01:27:30.785Z,12.80
2023-01-29T01:29:57.388Z,14.23
2023-01-29T01:32:23.889Z,13.82
2023-01-29T01:34:51.725Z,14.23
2023-01-29T01:37:18.112Z,13.70
2023-01-29T01:39:49.081Z,14.63
2023-01-29T01:42:15.477Z,14.15
2023-01-29T01:44:52.074Z,13.65
2023-01-29T01:47:20.468Z,14.48
2023-01-29T01:49:47.407Z,14.73
2023-01-29T01:52:15.427Z,14.80
2023-01-29T01:54:42.731Z,13.15
2023-01-29T01:57:16.258Z,13.52
2023-01-29T01:59:48.575Z,16.10
2023-01-29T02:02:34.334Z,16.10
2023-01-29T02:05:19.218Z,14.13
2023-01-29T02:08:06.122Z,13.00
2023-01-29T02:10:37.682Z,15.30
2023-01-29T02:13:05.315Z,14.00
2023-01-29T02:15:31.797Z,13.82
2023-01-29T02:17:58.299Z,15.00
2023-01-29T02:20:26.641Z,14.18
2023-01-29T02:23:11.502Z,13.63
2023-01-29T02:25:37.988Z,15.40
2023-01-29T02:28:27.190Z,15.77
2023-01-29T02:31:00.139Z,15.40
2023-01-29T02:33:26.643Z,15.43
2023-01-29T02:35:59.382Z,15.75
2023-01-29T02:38:28.780Z,15.32
2023-01-29T02:41:04.183Z,14.55
2023-01-29T02:43:49.210Z,14.35
2023-01-29T02:46:34.634Z,15.73
2023-01-29T02:51:34.610Z,13.43
2023-01-29T02:54:21.399Z,14.27
2023-01-29T02:56:58.569Z,14.60
2023-01-29T02:59:45.668Z,14.98
2023-01-29T03:02:16.488Z,13.70
2023-01-29T03:04:46.500Z,14.10
2023-01-29T03:07:22.479Z,12.20
2023-01-29T03:09:50.202Z,12.68
2023-01-29T03:12:33.930Z,12.25
2023-01-29T03:15:15.153Z,12.35
2023-01-29T03:18:07.698Z,12.52
2023-01-29T03:20:35.473Z,12.27
2023-01-29T03:23:06.077Z,12.07
2023-01-29T03:25:53.781Z,12.32
2023-01-29T03:28:40.090Z,13.98
2023-01-29T03:31:28.681Z,13.77
2023-01-29T03:34:00.329Z,13.43
2023-01-29T03:36:38.277Z,13.65
2023-01-29T03:39:05.707Z,14.10
2023-01-29T03:41:34.746Z,14.60
2023-01-29T03:44:16.542Z,15.02
2023-01-29T03:46:53.112Z,14.90
2023-01-29T03:49:25.860Z,15.40
2023-01-29T03:52:21.503Z,16.55
2023-01-29T03:54:50.661Z,16.02
2023-01-29T03:57:21.497Z,15.55
2023-01-29T04:00:02.260Z,15.60
2023-01-29T04:02:32.449Z,14.20
2023-01-29T04:05:11.841Z,15.65
2023-01-29T04:07:40.096Z,15.60
2023-01-29T04:10:11.348Z,16.92
2023-01-29T04:12:40.318Z,15.75
2023-01-29T04:15:09.413Z,16.02
2023-01-29T04:17:37.747Z,17.10
2023-01-29T04:20:04.284Z,16.30
2023-01-29T04:22:32.354Z,15.85
2023-01-29T04:25:02.578Z,16.63
2023-01-29T04:27:34.790Z,14.25
2023-01-29T04:30:04.740Z,12.93
2023-01-29T04:32:32.658Z,12.95
2023-01-29T04:35:17.631Z,14.65
2023-01-29T04:37:56.591Z,12.73
2023-01-29T04:40:32.245Z,12.93
2023-01-29T04:43:08.100Z,13.27
2023-01-29T04:45:53.075Z,13.98
2023-01-29T04:48:22.653Z,13.70
2023-01-29T04:50:48.987Z,14.13
2023-01-29T04:53:38.077Z,13.85
2023-01-29T04:56:07.568Z,13.82
2023-01-29T04:58:34.125Z,14.10
2023-01-29T05:01:02.215Z,13.85
2023-01-29T05:03:29.814Z,14.75
2023-01-29T05:05:57.296Z,13.85
2023-01-29T05:08:25.085Z,13.48
2023-01-29T05:10:52.658Z,12.70
2023-01-29T05:13:20.681Z,14.73
2023-01-29T05:16:05.928Z,14.88
2023-01-29T05:18:32.328Z,14.25
2023-01-29T05:20:59.938Z,14.73
2023-01-29T05:23:26.341Z,13.77
2023-01-29T05:25:52.860Z,13.10
2023-01-29T05:28:19.405Z,14.57
2023-01-29T05:30:49.800Z,13.52
2023-01-29T05:33:16.340Z,13.77
2023-01-29T05:35:42.800Z,13.65
2023-01-29T05:38:09.214Z,14.55
2023-01-29T05:40:36.318Z,13.60
2023-01-29T05:43:02.758Z,14.43
2023-01-29T05:45:29.129Z,14.25
2023-01-29T05:47:56.620Z,14.27
2023-01-29T05:50:22.947Z,13.77
2023-01-29T05:52:49.309Z,14.32
2023-01-29T05:55:15.740Z,14.05
2023-01-29T05:57:42.141Z,15.77
2023-01-29T06:00:09.307Z,15.07
2023-01-29T06:02:35.780Z,12.98
2023-01-29T06:05:02.115Z,13.07
2023-01-29T06:07:28.854Z,14.57
2023-01-29T06:09:55.214Z,14.15
2023-01-29T06:12:21.867Z,14.02
2023-01-29T06:14:48.210Z,14.20
2023-01-29T06:17:14.654Z,13.23
2023-01-29T06:19:41.045Z,14.30
2023-01-29T06:22:07.566Z,15.13
2023-01-29T06:24:33.932Z,15.35
2023-01-29T06:27:00.325Z,13.93
2023-01-29T06:29:26.689Z,13.88
2023-01-29T06:31:53.085Z,13.57
2023-01-29T06:34:19.560Z,15.63
2023-01-29T06:36:46.070Z,14.88
2023-01-29T06:39:12.723Z,15.93
2023-01-29T06:41:39.080Z,15.43
2023-01-29T06:44:05.549Z,14.27
2023-01-29T06:46:32.404Z,14.65
2023-01-29T06:49:00.482Z,13.98
2023-01-29T06:51:26.931Z,14.15
2023-01-29T06:53:54.585Z,15.68
2023-01-29T06:56:20.992Z,14.60
2023-01-29T06:58:47.516Z,15.25
2023-01-29T07:01:25.357Z,14.30
2023-01-29T07:04:00.407Z,13.65
2023-01-29T07:06:27.723Z,14.27
2023-01-29T07:08:54.140Z,13.40
2023-01-29T07:11:20.756Z,13.52
2023-01-29T07:13:47.133Z,14.27
2023-01-29T07:16:13.594Z,13.80
2023-01-29T07:18:39.995Z,15.02
2023-01-29T07:21:07.167Z,14.73
2023-01-29T07:23:34.137Z,14.70
2023-01-29T07:26:01.247Z,14.18
2023-01-29T07:28:27.630Z,15.13
2023-01-29T07:30:58.156Z,14.63
2023-01-29T07:33:25.299Z,16.25
2023-01-29T07:35:51.765Z,17.00
2023-01-29T07:38:18.106Z,14.98
2023-01-29T07:40:44.600Z,16.15
2023-01-29T07:43:11.279Z,15.75
2023-01-29T07:45:38.587Z,16.25
2023-01-29T07:48:05.836Z,15.32
2023-01-29T07:50:33.389Z,16.23
2023-01-29T07:53:00.001Z,15.65
2023-01-29T07:55:26.855Z,15.23
2023-01-29T07:58:00.529Z,15.82
2023-01-29T08:00:27.123Z,15.95
2023-01-29T08:02:53.462Z,16.80
2023-01-29T08:05:20.260Z,15.00
2023-01-29T08:07:54.173Z,15.88
2023-01-29T08:10:27.651Z,15.02
2023-01-29T08:12:58.731Z,16.13
2023-01-29T08:15:25.599Z,16.60
2023-01-29T08:20:38.694Z,15.55
2023-01-29T08:23:06.392Z,16.33
2023-01-29T08:25:33.229Z,15.70
2023-01-29T08:28:00.167Z,16.75
2023-01-29T08:30:27.173Z,16.15
2023-01-29T08:32:53.567Z,16.98
2023-01-29T08:35:20.239Z,17.73
2023-01-29T08:37:54.452Z,18.02
2023-01-29T08:40:21.313Z,16.98
2023-01-29T08:42:47.714Z,17.70
2023-01-29T08:45:14.214Z,16.42
2023-01-29T08:47:45.023Z,16.17
2023-01-29T08:50:11.672Z,18.00
2023-01-29T08:52:38.059Z,16.83
2023-01-29T08:55:04.647Z,16.88
2023-01-29T08:57:31.035Z,16.83
2023-01-29T08:59:57.533Z,17.35
2023-01-29T09:02:23.931Z,18.52
2023-01-29T09:04:50.331Z,17.75
2023-01-29T09:07:16.811Z,17.23
2023-01-29T09:09:43.267Z,17.70
2023-01-29T09:12:09.593Z,17.65
2023-01-29T09:14:35.987Z,20.58
2023-01-29T09:17:02.349Z,18.83
2023-01-29T09:19:28.767Z,18.63
2023-01-29T09:21:55.117Z,18.38
2023-01-29T09:24:21.483Z,18.15
2023-01-29T09:26:47.815Z,18.77
2023-01-29T09:29:14.395Z,18.75
2023-01-29T09:31:40.921Z,19.23
2023-01-29T09:34:07.595Z,20.63
2023-01-29T09:36:33.987Z,18.25
2023-01-29T09:39:00.347Z,17.90
2023-01-29T09:41:27.039Z,19.08
2023-01-29T09:43:55.841Z,18.00
2023-01-29T09:46:30.039Z,19.08
2023-01-29T09:49:03.037Z,18.40
2023-01-29T09:51:32.137Z,19.00
2023-01-29T09:54:06.182Z,18.60
2023-01-29T09:56:32.631Z,18.17
2023-01-29T09:59:01.545Z,18.60
2023-01-29T10:01:57.733Z,18.85
2023-01-29T10:04:24.134Z,22.00
2023-01-29T10:07:01.677Z,20.67
2023-01-29T10:09:41.383Z,19.83
2023-01-29T10:12:26.501Z,19.33
2023-01-29T10:15:00.497Z,19.60
2023-01-29T10:17:45.751Z,20.23
2023-01-29T10:20:31.011Z,20.17
2023-01-29T10:23:23.890Z,19.77
2023-01-29T10:25:51.716Z,17.33
2023-01-29T10:28:20.478Z,17.58
2023-01-29T10:30:51.073Z,19.95
2023-01-29T10:33:19.067Z,19.08
2023-01-29T10:35:53.391Z,19.08
2023-01-29T10:41:02.022Z,18.70
2023-01-29T10:43:35.661Z,18.35
2023-01-29T10:46:11.357Z,18.85
2023-01-29T10:48:45.188Z,19.05
2023-01-29T10:51:14.748Z,20.10
2023-01-29T10:53:58.503Z,19.83
2023-01-29T10:56:43.621Z,18.83
2023-01-29T10:59:19.049Z,19.45
2023-01-29T11:01:45.476Z,20.13
2023-01-29T11:04:12.931Z,19.98
2023-01-29T11:06:39.332Z,20.25
2023-01-29T11:09:24.450Z,19.15
2023-01-29T11:11:54.241Z,21.00
2023-01-29T11:14:35.896Z,21.23
2023-01-29T11:17:02.593Z,20.67
2023-01-29T11:19:39.646Z,20.15
2023-01-29T11:22:12.499Z,24.38
2023-01-29T11:24:38.875Z,24.23
2023-01-29T11:27:14.322Z,20.45
2023-01-29T11:29:48.009Z,20.05
2023-01-29T11:32:34.104Z,21.63
2023-01-29T11:35:03.324Z,20.45
2023-01-29T11:37:35.826Z,19.30
2023-01-29T11:40:02.727Z,19.83
2023-01-29T11:42:31.267Z,20.05
2023-01-29T11:44:57.681Z,20.52
2023-01-29T11:47:27.440Z,19.35
2023-01-29T11:49:55.625Z,20.88
2023-01-29T11:52:23.627Z,19.25
2023-01-29T11:54:52.901Z,18.98
2023-01-29T11:57:28.164Z,19.10
2023-01-29T11:59:56.601Z,19.27
2023-01-29T12:02:30.792Z,18.40
2023-01-29T12:05:02.332Z,17.83
2023-01-29T12:07:29.242Z,18.05
2023-01-29T12:09:57.118Z,18.48
2023-01-29T12:12:23.492Z,16.67
2023-01-29T12:15:02.276Z,19.67
2023-01-29T12:17:29.782Z,17.70
2023-01-29T12:20:01.421Z,17.45
2023-01-29T12:22:27.782Z,18.27
2023-01-29T12:24:57.129Z,17.27
2023-01-29T12:27:26.525Z,18.80
2023-01-29T12:29:58.059Z,16.77
2023-01-29T12:32:43.438Z,17.75
2023-01-29T12:35:21.998Z,18.90
2023-01-29T12:37:48.303Z,14.63
2023-01-29T12:40:16.832Z,16.63
2023-01-29T12:42:46.420Z,18.10
2023-01-29T12:45:17.367Z,16.75
2023-01-29T12:47:45.683Z,16.85
2023-01-29T12:50:15.468Z,16.15
2023-01-29T12:52:47.350Z,17.67
2023-01-29T12:55:16.758Z,16.02
2023-01-29T12:57:48.887Z,16.67
2023-01-29T13:00:18.476Z,17.02
2023-01-29T13:02:52.375Z,17.58
2023-01-29T13:05:20.773Z,17.42
2023-01-29T13:07:50.184Z,16.55
2023-01-29T13:10:19.666Z,16.60
2023-01-29T13:12:54.567Z,19.52
2023-01-29T13:15:23.586Z,15.88
2023-01-29T13:17:53.067Z,17.85
2023-01-29T13:20:34.069Z,18.15
2023-01-29T13:23:15.287Z,16.35
2023-01-29T13:25:41.793Z,16.00
2023-01-29T13:28:16.407Z,16.20
2023-01-29T13:30:43.416Z,15.85
2023-01-29T13:33:18.543Z,16.77
2023-01-29T13:38:25.898Z,14.52
2023-01-29T13:40:54.102Z,15.52
2023-01-29T13:43:21.892Z,15.30
2023-01-29T13:45:48.885Z,16.38
2023-01-29T13:48:36.851Z,15.75
2023-01-29T13:51:04.643Z,15.23
2023-01-29T13:53:40.403Z,15.27
2023-01-29T13:56:30.160Z,14.82
2023-01-29T13:58:57.183Z,15.23
2023-01-29T14:01:42.235Z,14.45
2023-01-29T14:04:25.761Z,14.77
2023-01-29T14:06:52.476Z,13.88
2023-01-29T14:09:54.009Z,16.33
2023-01-29T14:12:23.527Z,14.25
2023-01-29T14:14:49.927Z,17.20
2023-01-29T14:17:17.271Z,16.60
2023-01-29T14:19:50.976Z,13.90
2023-01-29T14:22:20.785Z,14.73
2023-01-29T14:24:47.698Z,15.85
2023-01-29T14:27:21.549Z,14.57
2023-01-29T14:29:48.329Z,14.07
2023-01-29T14:32:14.798Z,15.18
2023-01-29T14:34:45.599Z,15.43
2023-01-29T14:37:14.941Z,15.13
2023-01-29T14:39:50.000Z,14.10
2023-01-29T14:42:27.182Z,14.55
2023-01-29T14:45:00.141Z,15.02
2023-01-29T14:47:32.423Z,13.55
2023-01-29T14:49:59.779Z,15.43
2023-01-29T14:52:43.345Z,15.45
2023-01-29T14:55:23.363Z,13.90
2023-01-29T14:57:51.120Z,14.68
2023-01-29T15:00:22.661Z,14.27
2023-01-29T15:02:59.885Z,14.23
2023-01-29T15:05:30.300Z,14.95
2023-01-29T15:07:58.547Z,14.85
2023-01-29T15:10:43.634Z,16.05
2023-01-29T15:13:13.021Z,14.90
2023-01-29T15:16:02.765Z,15.35
2023-01-29T15:18:29.186Z,16.23
2023-01-29T15:21:03.973Z,16.60
2023-01-29T15:23:32.381Z,15.32
2023-01-29T15:26:01.981Z,15.60
2023-01-29T15:28:32.435Z,15.57
2023-01-29T15:31:00.224Z,16.50
2023-01-29T15:33:26.991Z,14.95
2023-01-29T15:36:08.219Z,16.27
2023-01-29T15:38:35.092Z,15.85
2023-01-29T15:41:16.118Z,15.52
2023-01-29T15:43:44.477Z,15.73
2023-01-29T15:46:13.221Z,16.25
2023-01-29T15:48:41.688Z,16.15
2023-01-29T15:51:08.636Z,15.70
2023-01-29T15:53:37.896Z,15.73
2023-01-29T15:56:08.293Z,16.88
2023-01-29T15:58:34.751Z,15.40
2023-01-29T16:01:01.306Z,16.15
2023-01-29T16:03:30.801Z,15.38
2023-01-29T16:05:57.198Z,15.18
2023-01-29T16:08:24.843Z,13.70
2023-01-29T16:10:59.314Z,16.42
2023-01-29T16:13:27.397Z,13.63
2023-01-29T16:15:58.735Z,15.30
2023-01-29T16:18:58.055Z,15.43
2023-01-29T16:21:36.266Z,15.75
2023-01-29T16:24:07.496Z,15.85
2023-01-29T16:26:35.401Z,14.75
2023-01-29T16:29:05.896Z,16.23
2023-01-29T16:31:32.922Z,16.08
2023-01-29T16:34:05.534Z,15.75
2023-01-29T16:36:32.075Z,15.15
2023-01-29T16:39:00.047Z,15.90
2023-01-29T16:41:26.466Z,18.55
2023-01-29T16:43:54.623Z,15.32
2023-01-29T16:46:32.468Z,16.42
2023-01-29T16:48:59.264Z,15.82
2023-01-29T16:51:37.121Z,16.35
2023-01-29T16:54:12.483Z,15.98
2023-01-29T16:56:39.501Z,15.85
2023-01-29T16:59:06.558Z,16.95
2023-01-29T17:01:34.983Z,17.40
2023-01-29T17:04:01.472Z,16.23
2023-01-29T17:06:28.005Z,16.38
2023-01-29T17:08:54.789Z,16.10
2023-01-29T17:11:26.535Z,15.95
2023-01-29T17:13:54.980Z,16.65
2023-01-29T17:16:35.119Z,16.13
2023-01-29T17:19:01.721Z,17.90
2023-01-29T17:21:31.284Z,16.70
2023-01-29T17:23:57.786Z,17.45
2023-01-29T17:26:25.032Z,17.35
2023-01-29T17:28:51.670Z,16.13
2023-01-29T17:31:18.267Z,17.92
2023-01-29T17:33:45.887Z,17.73
2023-01-29T17:36:14.217Z,14.55
2023-01-29T17:38:41.242Z,16.92
2023-01-29T17:41:12.104Z,15.32
2023-01-29T17:43:38.484Z,16.67
2023-01-29T17:46:04.973Z,18.08
2023-01-29T17:48:31.623Z,16.67
2023-01-29T17:51:03.005Z,18.00
2023-01-29T17:53:44.161Z,16.40
2023-01-29T17:56:31.354Z,17.05
2023-01-29T17:58:57.836Z,17.17
2023-01-29T18:01:24.192Z,16.77
2023-01-29T18:03:50.626Z,17.40
2023-01-29T18:06:24.616Z,17.27
2023-01-29T18:08:50.953Z,16.48
2023-01-29T18:11:17.346Z,16.52
2023-01-29T18:13:43.695Z,16.13
2023-01-29T18:16:10.153Z,17.48
2023-01-29T18:18:36.641Z,16.98
2023-01-29T18:21:03.115Z,15.75
2023-01-29T18:23:31.135Z,15.85
2023-01-29T18:25:58.018Z,17.42
2023-01-29T18:28:24.887Z,16.02
2023-01-29T18:30:51.431Z,16.55
2023-01-29T18:33:18.024Z,15.93
2023-01-29T18:35:45.176Z,17.77
2023-01-29T18:38:11.660Z,15.25
2023-01-29T18:40:38.273Z,15.68
2023-01-29T18:43:04.746Z,15.75
2023-01-29T18:45:31.561Z,15.95
2023-01-29T18:47:59.231Z,16.10
2023-01-29T18:50:26.524Z,15.80
2023-01-29T18:52:53.400Z,16.52
2023-01-29T18:55:19.917Z,15.65
2023-01-29T18:58:28.852Z,17.55
2023-01-29T19:00:32.853Z,16.08
2023-01-29T19:02:59.710Z,15.30
2023-01-29T19:05:26.177Z,14.05
2023-01-29T19:07:52.727Z,18.02
2023-01-29T19:10:19.211Z,17.55
2023-01-29T19:12:45.641Z,17.65
2023-01-29T19:15:12.153Z,17.98
2023-01-29T19:17:38.905Z,17.00
2023-01-29T19:20:05.439Z,17.65
2023-01-29T19:22:32.476Z,17.45
2023-01-29T19:24:58.990Z,18.48
2023-01-29T19:27:30.186Z,17.80
2023-01-29T19:29:59.661Z,16.55
2023-01-29T19:32:26.847Z,16.15
2023-01-29T19:34:53.471Z,19.08
2023-01-29T19:37:19.860Z,18.75
2023-01-29T19:39:46.270Z,17.65
2023-01-29T19:42:12.722Z,18.67
2023-01-29T19:44:39.850Z,20.13
2023-01-29T19:47:06.334Z,21.15
2023-01-29T19:49:34.095Z,20.63
2023-01-29T19:52:01.136Z,21.27
2023-01-29T19:54:27.825Z,19.50
2023-01-29T19:56:54.527Z,18.48
2023-01-29T19:59:21.108Z,20.42
2023-01-29T20:01:47.657Z,20.73
2023-01-29T20:04:14.250Z,18.52
2023-01-29T20:06:40.918Z,19.90
2023-01-29T20:09:07.359Z,19.33
2023-01-29T20:11:34.063Z,20.88
2023-01-29T20:14:00.498Z,21.27
2023-01-29T20:16:27.003Z,20.08
2023-01-29T20:18:53.410Z,19.83
2023-01-29T20:21:22.334Z,20.35
2023-01-29T20:23:49.927Z,19.23
2023-01-29T20:26:17.358Z,18.90
2023-01-29T20:28:45.584Z,18.20
2023-01-29T20:31:12.036Z,18.65
2023-01-29T20:33:39.624Z,18.63
2023-01-29T20:36:07.631Z,18.40
2023-01-29T20:38:34.717Z,18.48
2023-01-29T20:41:05.325Z,17.20
2023-01-29T20:43:32.109Z,17.65
2023-01-29T20:45:58.939Z,18.55
2023-01-29T20:48:26.166Z,17.30
2023-01-29T20:50:52.744Z,17.73
2023-01-29T20:53:19.307Z,16.83
2023-01-29T20:55:45.966Z,17.58
2023-01-29T20:58:12.453Z,15.77
2023-01-29T21:00:39.021Z,16.45
2023-01-29T21:03:05.476Z,15.70
2023-01-29T21:05:32.608Z,15.70
2023-01-29T21:07:59.124Z,17.15
2023-01-29T21:10:25.620Z,16.63
2023-01-29T21:12:52.160Z,19.05
2023-01-29T21:15:18.565Z,18.85
2023-01-29T21:17:47.166Z,18.90
2023-01-29T21:20:13.726Z,17.38
2023-01-29T21:22:42.510Z,16.90
2023-01-29T21:25:09.012Z,17.20
2023-01-29T21:27:35.515Z,17.02
2023-01-29T21:30:02.290Z,16.80
2023-01-29T21:32:28.653Z,14.15
2023-01-29T21:34:55.079Z,12.15
2023-01-29T21:37:21.487Z,12.43
2023-01-29T21:39:47.862Z,9.23
2023-01-29T21:42:33.139Z,10.07
2023-01-29T21:44:59.520Z,8.23
2023-01-29T21:47:25.940Z,8.50
2023-01-29T21:49:52.308Z,8.90
2023-01-29T21:52:18.731Z,7.78
2023-01-29T21:54:48.748Z,7.75
2023-01-29T21:57:16.117Z,8.65
2023-01-29T21:59:43.267Z,8.57
2023-01-29T22:02:16.800Z,8.65
2023-01-29T22:04:43.271Z,8.55
2023-01-29T22:07:10.474Z,8.80
2023-01-29T22:09:37.229Z,9.15
2023-01-29T22:12:05.130Z,8.75
2023-01-29T22:14:31.492Z,8.00
2023-01-29T22:16:57.962Z,8.85
2023-01-29T22:19:25.396Z,9.35
2023-01-29T22:21:55.045Z,8.02
2023-01-29T22:24:21.927Z,7.95
2023-01-29T22:26:49.452Z,7.32
2023-01-29T22:29:19.583Z,7.35
2023-01-29T22:31:46.393Z,8.10
2023-01-29T22:34:13.487Z,7.00
2023-01-29T22:36:39.853Z,6.45
2023-01-29T22:39:07.661Z,5.63
2023-01-29T22:41:34.051Z,6.10
2023-01-29T22:44:01.062Z,6.20
2023-01-29T22:46:27.479Z,5.50
2023-01-29T22:48:54.070Z,6.50
2023-01-29T22:51:20.465Z,5.53
2023-01-29T22:53:50.757Z,5.43
2023-01-29T22:56:17.724Z,5.15
2023-01-29T22:58:44.224Z,6.30
2023-01-29T23:01:10.726Z,4.35
2023-01-29T23:03:37.182Z,4.80
2023-01-29T23:06:03.855Z,7.03
2023-01-29T23:08:31.864Z,5.47
2023-01-29T23:11:13.958Z,5.60
2023-01-29T23:13:44.806Z,4.63
2023-01-29T23:16:11.712Z,5.55
2023-01-29T23:18:38.215Z,5.32
2023-01-29T23:21:04.698Z,5.63
2023-01-29T23:23:32.132Z,5.82
2023-01-29T23:26:17.526Z,6.38
2023-01-29T23:28:44.466Z,5.75
2023-01-29T23:31:11.405Z,6.20
2023-01-29T23:33:37.873Z,6.28
2023-01-29T23:36:04.641Z,6.88
2023-01-29T23:38:30.962Z,6.32
2023-01-29T23:40:58.127Z,7.50
2023-01-29T23:43:25.205Z,9.63
2023-01-29T23:45:51.542Z,8.50
2023-01-29T23:48:18.022Z,8.73
2023-01-29T23:50:44.560Z,9.75
2023-01-29T23:53:10.954Z,8.32
2023-01-29T23:55:37.375Z,10.07
2023-01-29T23:58:03.895Z,7.63
